Time;durP1;ratioP1;P1;durP2;ratioP2;P2;SDS_P1;SDS_P2;PMS_P1;PMS_P2;Temp;Humidity;BMP_temperature;BMP_pressure;BME280_temperature;BME280_humidity;BME280_pressure;Samples;Min_cycle;Max_cycle;Signal;HPM_P1;HPM_P2
2022/02/09 00:05:12;;;;;;;0.20;0.20;;;19.10;48.40;;;;;;6149788;29;20070;-66
2022/02/09 00:08:14;;;;;;;0.20;0.20;;;19.10;49.10;;;;;;6172689;28;20031;-66
2022/02/09 00:11:25;;;;;;;0.25;0.20;;;19.10;48.40;;;;;;6173891;28;20034;-66
2022/02/09 00:14:47;;;;;;;0.25;0.20;;;19.10;48.40;;;;;;6173526;28;20081;-67
2022/02/09 00:18:00;;;;;;;0.38;0.20;;;19.10;48.40;;;;;;6173622;28;20468;-67
2022/02/09 00:25:08;;;;;;;0.22;0.20;;;19.10;48.40;;;;;;6146564;28;20028;-66
2022/02/09 00:34:44;;;;;;;0.55;0.30;;;19.10;48.50;;;;;;6152964;28;20038;-67
2022/02/09 00:41:22;;;;;;;0.20;0.20;;;19.10;48.50;;;;;;6149284;28;20038;-66
2022/02/09 01:40:13;;;;;;;0.30;0.30;;;19.10;48.60;;;;;;6172019;28;20026;-67
2022/02/09 01:44:02;;;;;;;0.20;0.20;;;19.00;48.50;;;;;;6151320;28;20034;-66
2022/02/09 01:56:33;;;;;;;0.47;0.22;;;19.10;48.70;;;;;;6171341;28;20413;-66
2022/02/09 01:59:33;;;;;;;0.10;0.10;;;19.10;48.70;;;;;;6171304;28;20070;-66
2022/02/09 02:02:34;;;;;;;0.50;0.20;;;19.10;48.70;;;;;;6171307;28;20037;-66
2022/02/09 02:05:35;;;;;;;0.40;0.30;;;19.10;48.70;;;;;;6170672;28;20031;-66
2022/02/09 02:08:37;;;;;;;0.20;0.20;;;19.10;48.70;;;;;;6171179;28;20128;-66
2022/02/09 02:11:47;;;;;;;0.20;0.20;;;19.10;48.70;;;;;;6171139;28;20038;-67
2022/02/09 02:14:57;;;;;;;0.40;0.20;;;19.10;48.70;;;;;;6170713;28;20030;-66
2022/02/09 02:17:58;;;;;;;0.10;0.10;;;19.10;48.70;;;;;;6170918;28;20027;-67
2022/02/09 02:21:25;;;;;;;0.63;0.20;;;19.10;48.70;;;;;;6170634;28;20039;-66
2022/02/09 02:24:42;;;;;;;0.20;0.20;;;19.10;48.70;;;;;;6170527;28;20086;-67
2022/02/09 02:32:27;;;;;;;0.20;0.20;;;19.00;48.60;;;;;;6170777;28;20030;-66
2022/02/09 02:47:25;;;;;;;0.32;0.20;;;19.10;48.70;;;;;;6170133;28;20097;-67
2022/02/09 02:57:13;;;;;;;1.77;0.20;;;19.10;48.70;;;;;;6170268;28;20034;-67
2022/02/09 03:08:11;;;;;;;0.20;0.20;;;19.00;48.70;;;;;;6169845;28;20560;-66
2022/02/09 03:13:15;;;;;;;0.10;0.10;;;19.00;48.70;;;;;;6169908;28;20019;-67
2022/02/09 03:16:26;;;;;;;0.50;0.30;;;19.10;48.80;;;;;;6170104;28;20453;-67
2022/02/09 03:19:43;;;;;;;0.10;0.10;;;19.00;48.70;;;;;;6170070;28;20058;-67
2022/02/09 03:26:24;;;;;;;0.50;0.30;;;19.10;48.80;;;;;;6169403;28;20110;-67
2022/02/09 03:52:43;;;;;;;0.10;0.10;;;19.10;48.80;;;;;;6146074;29;20031;-67
2022/02/09 03:58:51;;;;;;;0.40;0.28;;;19.00;48.80;;;;;;6145486;29;20063;-66
2022/02/09 04:01:51;;;;;;;0.22;0.20;;;19.00;48.80;;;;;;6145437;29;20109;-66
2022/02/09 04:04:56;;;;;;;0.20;0.20;;;19.00;48.80;;;;;;6145265;29;20027;-66
2022/02/09 04:07:57;;;;;;;0.40;0.20;;;19.10;48.80;;;;;;6165601;28;20039;-66
2022/02/09 04:11:06;;;;;;;0.10;0.10;;;19.00;48.80;;;;;;6169589;28;20470;-67
2022/02/09 04:14:17;;;;;;;0.20;0.20;;;19.00;48.80;;;;;;6169042;28;20045;-67
2022/02/09 04:22:20;;;;;;;0.25;0.22;;;19.00;48.80;;;;;;6165830;28;20131;-66
2022/02/09 04:37:09;;;;;;;0.15;0.15;;;19.00;48.80;;;;;;6172684;28;20502;-67
2022/02/09 04:40:14;;;;;;;0.10;0.10;;;19.00;48.80;;;;;;6173182;28;20146;-67
2022/02/09 04:50:03;;;;;;;0.20;0.20;;;19.00;48.90;;;;;;6137076;29;20419;-67
2022/02/09 04:53:24;;;;;;;0.20;0.20;;;19.00;48.90;;;;;;6148841;29;20186;-66
2022/02/09 05:26:39;;;;;;;0.22;0.20;;;19.00;48.90;;;;;;6171350;28;20039;-67
2022/02/09 05:29:39;;;;;;;0.20;0.17;;;19.00;48.90;;;;;;6172252;28;20786;-67
2022/02/09 05:32:39;;;;;;;0.20;0.20;;;19.10;48.90;;;;;;6165897;28;20041;-67
2022/02/09 05:35:43;;;;;;;0.20;0.20;;;19.10;48.90;;;;;;6147455;28;20031;-67
2022/02/09 05:38:44;;;;;;;1.45;0.20;;;19.00;48.80;;;;;;6148159;28;20202;-67
2022/02/09 05:41:46;;;;;;;1.70;0.20;;;19.10;48.90;;;;;;6147618;28;20443;-67
2022/02/09 05:44:47;;;;;;;0.10;0.10;;;19.10;48.90;;;;;;6147068;28;20050;-67
2022/02/09 05:50:58;;;;;;;0.30;0.25;;;19.10;48.90;;;;;;6148018;29;20034;-67
2022/02/09 05:55:09;;;;;;;0.32;0.20;;;19.10;48.90;;;;;;6147235;29;20326;-67
2022/02/09 05:57:43;;;;;;;0.28;0.20;;;19.10;49.00;;;;;;6146343;29;20067;-66
2022/02/09 06:00:47;;;;;;;0.57;0.30;;;19.10;48.90;;;;;;6147237;29;20074;-66
2022/02/09 06:03:48;;;;;;;0.30;0.22;;;19.10;48.90;;;;;;6147624;28;20031;-67
2022/02/09 06:06:48;;;;;;;0.10;0.10;;;19.10;48.90;;;;;;6158431;28;20105;-66
2022/02/09 06:09:49;;;;;;;0.20;0.20;;;19.10;48.90;;;;;;6171005;28;20516;-67
2022/02/09 06:12:56;;;;;;;0.30;0.25;;;19.10;48.90;;;;;;6171421;28;20023;-67
2022/02/09 06:16:10;;;;;;;0.32;0.30;;;19.10;48.90;;;;;;6170828;28;20026;-67
2022/02/09 06:19:41;;;;;;;1.02;0.20;;;19.10;49.00;;;;;;6170250;28;20213;-66
2022/02/09 06:22:42;;;;;;;0.20;0.17;;;19.10;48.90;;;;;;6157256;28;20686;-67
2022/02/09 06:25:42;;;;;;;0.65;0.20;;;19.10;49.00;;;;;;6167618;28;20030;-67
2022/02/09 06:28:44;;;;;;;1.08;0.30;;;19.10;48.90;;;;;;6169589;28;20027;-67
2022/02/09 06:31:46;;;;;;;0.20;0.20;;;19.10;48.90;;;;;;6169824;28;20114;-67
2022/02/09 06:34:48;;;;;;;0.30;0.20;;;19.10;48.90;;;;;;6146384;28;20023;-67
2022/02/09 06:37:49;;;;;;;0.25;0.25;;;19.10;48.90;;;;;;6158439;28;20077;-66
2022/02/09 06:40:54;;;;;;;0.40;0.20;;;19.10;49.00;;;;;;6167353;28;20019;-67
2022/02/09 06:43:54;;;;;;;0.20;0.20;;;19.10;49.00;;;;;;6145870;29;20034;-67
2022/02/09 06:46:55;;;;;;;0.20;0.20;;;19.10;49.00;;;;;;6145534;29;20435;-67
2022/02/09 06:50:03;;;;;;;0.22;0.20;;;19.10;49.00;;;;;;6154117;28;20426;-67
2022/02/09 06:56:39;;;;;;;0.20;0.20;;;19.10;48.90;;;;;;6168389;28;20122;-66
2022/02/09 06:59:41;;;;;;;0.20;0.20;;;19.10;49.00;;;;;;6165561;28;20054;-67
2022/02/09 07:02:43;;;;;;;0.40;0.20;;;19.10;48.90;;;;;;6169560;28;20114;-67
2022/02/09 07:05:44;;;;;;;0.40;0.30;;;19.10;49.00;;;;;;6170680;28;20031;-67
2022/02/09 07:08:44;;;;;;;0.25;0.20;;;19.10;49.00;;;;;;6171067;28;20486;-66
2022/02/09 07:11:45;;;;;;;0.95;0.30;;;19.10;49.00;;;;;;6169657;28;20027;-66
2022/02/09 07:14:46;;;;;;;1.02;0.32;;;19.10;49.00;;;;;;6170574;28;20505;-65
2022/02/09 07:17:47;;;;;;;0.88;0.40;;;19.10;49.00;;;;;;6161167;28;20518;-66
2022/02/09 07:23:51;;;;;;;0.80;0.40;;;19.20;49.30;;;;;;6163456;28;20386;-66
2022/02/09 07:27:25;;;;;;;0.57;0.30;;;19.30;49.00;;;;;;6156714;28;20037;-66
2022/02/09 07:30:26;;;;;;;0.30;0.22;;;19.40;48.80;;;;;;6173044;28;20499;-64
2022/02/09 07:33:28;;;;;;;0.95;0.40;;;19.60;49.40;;;;;;6159764;28;20110;-66
2022/02/09 07:36:31;;;;;;;4.88;0.30;;;19.60;48.50;;;;;;6149072;28;20035;-68
2022/02/09 07:39:33;;;;;;;3.58;0.95;;;19.60;48.50;;;;;;6163096;28;20125;-66
2022/02/09 07:42:38;;;;;;;5.80;1.58;;;19.60;48.50;;;;;;6156706;28;20386;-66
2022/02/09 07:49:02;;;;;;;11.27;1.50;;;19.80;48.40;;;;;;6147513;28;19910;-64
2022/02/09 07:52:12;;;;;;;10.50;1.48;;;19.80;48.10;;;;;;6148243;29;20082;-66
2022/02/09 07:55:13;;;;;;;8.05;1.90;;;19.90;48.20;;;;;;6147896;29;20044;-65
2022/02/09 07:58:13;;;;;;;9.07;2.42;;;20.00;48.00;;;;;;6149033;29;20327;-66
2022/02/09 08:01:14;;;;;;;7.32;2.15;;;20.00;48.00;;;;;;6148234;29;20036;-65
2022/02/09 08:04:15;;;;;;;15.15;3.08;;;20.00;47.90;;;;;;6148867;29;20150;-65
2022/02/09 08:07:15;;;;;;;8.60;2.60;;;20.10;47.90;;;;;;6163909;28;20121;-65
2022/02/09 08:10:39;;;;;;;8.02;2.00;;;20.10;47.50;;;;;;6176539;28;20548;-64
2022/02/09 08:20:34;;;;;;;15.60;3.47;;;20.30;47.20;;;;;;6176562;28;20027;-63
2022/02/09 08:26:51;;;;;;;16.85;3.50;;;20.40;47.40;;;;;;6176468;28;20486;-64
2022/02/09 08:33:18;;;;;;;13.80;3.67;;;20.60;47.30;;;;;;6166005;28;20035;-64
2022/02/09 08:36:18;;;;;;;17.08;3.55;;;20.60;47.10;;;;;;6152583;28;20083;-63
2022/02/09 08:39:19;;;;;;;18.90;3.33;;;20.60;47.20;;;;;;6152871;28;20047;-64
2022/02/09 08:42:19;;;;;;;16.75;3.10;;;20.60;47.00;;;;;;6152102;28;20026;-64
2022/02/09 08:45:21;;;;;;;19.08;3.30;;;20.60;46.80;;;;;;6152404;29;20040;-64
2022/02/09 08:48:21;;;;;;;25.83;3.65;;;20.60;47.40;;;;;;6152503;29;20043;-66
2022/02/09 08:51:24;;;;;;;16.33;3.78;;;20.70;47.30;;;;;;6151758;29;20487;-66
2022/02/09 08:54:26;;;;;;;19.58;3.10;;;20.80;46.60;;;;;;6152395;29;20052;-66
2022/02/09 08:57:28;;;;;;;13.52;3.08;;;20.80;46.50;;;;;;6152037;29;20087;-66
2022/02/09 09:00:33;;;;;;;18.52;3.40;;;20.80;46.70;;;;;;6151928;29;20114;-64
2022/02/09 09:03:42;;;;;;;14.23;3.50;;;20.80;46.50;;;;;;6151900;29;20135;-66
2022/02/09 09:06:43;;;;;;;21.38;3.60;;;20.80;46.70;;;;;;6161382;28;20121;-68
2022/02/09 09:10:26;;;;;;;20.23;3.55;;;20.80;47.00;;;;;;6175842;28;20074;-67
2022/02/09 10:03:04;;;;;;;32.03;4.10;;;21.20;46.80;;;;;;6150282;29;20027;-66
2022/02/09 10:33:24;;;;;;;9.20;3.70;;;21.20;47.10;;;;;;6161399;28;20386;-66
2022/02/09 10:36:25;;;;;;;13.70;3.50;;;21.20;47.30;;;;;;6150099;28;20476;-65
2022/02/09 10:40:09;;;;;;;11.45;3.90;;;21.20;47.10;;;;;;6161254;28;20030;-68
2022/02/09 10:43:00;;;;;;;20.80;4.13;;;21.20;47.30;;;;;;6152716;28;20434;-66
2022/02/09 10:46:09;;;;;;;11.75;3.35;;;21.20;47.30;;;;;;6149625;29;20038;-67
2022/02/09 10:49:09;;;;;;;13.65;3.58;;;21.20;47.20;;;;;;6149498;29;20034;-66
2022/02/09 10:52:17;;;;;;;13.75;3.60;;;21.30;47.40;;;;;;6149470;29;20474;-65
2022/02/09 10:55:31;;;;;;;19.88;4.00;;;21.30;47.20;;;;;;6149432;29;20043;-66
2022/02/09 10:58:34;;;;;;;14.30;3.13;;;21.30;47.20;;;;;;6149608;29;20031;-64
2022/02/09 11:01:36;;;;;;;15.95;3.70;;;21.30;47.40;;;;;;6149019;29;20023;-67
2022/02/09 11:04:39;;;;;;;14.63;3.72;;;21.30;47.50;;;;;;6148034;29;20054;-67
2022/02/09 11:07:43;;;;;;;22.42;4.53;;;21.30;47.80;;;;;;6167546;28;20035;-66
2022/02/09 11:10:44;;;;;;;40.58;6.25;;;21.40;47.80;;;;;;6172380;28;20033;-65
2022/02/09 11:13:44;;;;;;;28.52;5.38;;;21.40;48.10;;;;;;6172487;28;20114;-67
2022/02/09 11:16:57;;;;;;;14.45;4.07;;;21.50;47.90;;;;;;6171844;28;20053;-67
2022/02/09 11:19:58;;;;;;;17.80;4.07;;;21.50;47.60;;;;;;6173241;28;20154;-65
2022/02/09 11:22:59;;;;;;;15.30;4.05;;;21.50;47.40;;;;;;6159566;28;20043;-66
2022/02/09 11:26:06;;;;;;;12.48;3.78;;;21.40;47.30;;;;;;6171115;28;20484;-66
2022/02/09 11:29:24;;;;;;;13.88;4.07;;;21.50;47.40;;;;;;6172177;28;20429;-67
2022/02/09 11:32:32;;;;;;;12.98;3.58;;;21.50;47.40;;;;;;6168089;28;20085;-67
2022/02/09 11:35:36;;;;;;;11.73;3.30;;;21.40;47.30;;;;;;6149387;28;20114;-66
2022/02/09 11:38:44;;;;;;;15.93;4.43;;;21.40;47.30;;;;;;6148533;28;20127;-67
2022/02/09 11:42:23;;;;;;;13.50;3.50;;;21.50;47.50;;;;;;6148291;28;20482;-67
2022/02/09 11:56:02;;;;;;;14.40;3.38;;;21.40;48.80;;;;;;6153480;29;20054;-68
2022/02/09 12:12:09;;;;;;;20.35;3.60;;;21.20;48.80;;;;;;6125625;29;20427;-67
2022/02/09 12:15:42;;;;;;;16.10;4.63;;;21.20;48.60;;;;;;6125653;29;20086;-66
2022/02/09 12:18:53;;;;;;;17.67;4.53;;;21.20;48.60;;;;;;6169693;28;20027;-66
2022/02/09 12:22:11;;;;;;;24.93;5.60;;;21.10;48.50;;;;;;6175965;28;20098;-67
2022/02/09 12:25:11;;;;;;;23.85;5.18;;;21.00;48.70;;;;;;6175327;28;20540;-67
2022/02/09 12:28:28;;;;;;;17.92;4.60;;;20.90;48.80;;;;;;6173513;28;20035;-66
2022/02/09 12:31:31;;;;;;;21.27;4.30;;;20.90;48.70;;;;;;6174894;28;20438;-66
2022/02/09 12:34:33;;;;;;;23.92;5.57;;;20.80;49.50;;;;;;6161053;28;20030;-67
2022/02/09 12:37:36;;;;;;;14.95;4.18;;;20.80;49.00;;;;;;6175033;28;20038;-67
2022/02/09 12:40:38;;;;;;;13.15;3.83;;;20.80;48.70;;;;;;6174787;28;20025;-67
2022/02/09 12:44:08;;;;;;;10.48;3.75;;;20.80;48.70;;;;;;6150964;28;20390;-67
2022/02/09 12:47:09;;;;;;;10.70;4.07;;;20.70;48.60;;;;;;6161881;28;20104;-66
2022/02/09 12:50:13;;;;;;;13.85;3.45;;;20.70;48.50;;;;;;6174947;28;20015;-67
2022/02/09 12:53:13;;;;;;;8.48;3.42;;;20.70;49.20;;;;;;6173896;28;20386;-67
2022/02/09 12:56:48;;;;;;;12.48;3.47;;;20.70;49.20;;;;;;6173710;28;20031;-67
2022/02/09 12:59:48;;;;;;;10.10;3.45;;;20.70;48.50;;;;;;6167113;28;20039;-67
2022/02/09 13:02:50;;;;;;;11.18;3.40;;;20.70;48.50;;;;;;6174430;28;20045;-67
2022/02/09 13:05:56;;;;;;;9.18;2.92;;;20.70;48.50;;;;;;6174305;28;20490;-67
2022/02/09 13:08:57;;;;;;;7.40;2.95;;;20.70;48.60;;;;;;6174238;28;20031;-67
2022/02/09 13:11:57;;;;;;;8.82;3.25;;;20.60;48.70;;;;;;6174123;28;20034;-66
2022/02/09 13:15:20;;;;;;;12.90;2.90;;;20.60;48.70;;;;;;6174837;28;20500;-67
2022/02/09 13:18:35;;;;;;;8.82;3.00;;;20.60;48.80;;;;;;6174389;28;20039;-66
2022/02/09 13:25:29;;;;;;;8.48;2.88;;;20.60;48.80;;;;;;6174195;28;19906;-67
2022/02/09 14:12:20;;;;;;;5.10;1.92;;;20.40;49.70;;;;;;6169470;28;20050;-67
2022/02/09 14:15:52;;;;;;;7.38;2.08;;;20.40;49.60;;;;;;6172158;28;20038;-67
2022/02/09 14:49:16;;;;;;;2.72;1.42;;;20.30;49.60;;;;;;6171022;28;20039;-67
2022/02/09 14:52:06;;;;;;;3.35;1.48;;;20.40;49.70;;;;;;6171049;28;20039;-66
2022/02/09 14:58:13;;;;;;;4.50;1.50;;;20.60;49.30;;;;;;6171975;28;20019;-67
2022/02/09 15:01:23;;;;;;;3.00;1.35;;;20.60;49.40;;;;;;6171359;28;20027;-66
2022/02/09 15:11:24;;;;;;;3.25;1.63;;;20.70;49.00;;;;;;6170027;28;20030;-68
2022/02/09 15:14:32;;;;;;;7.18;1.90;;;20.70;49.10;;;;;;6170383;28;20090;-67
2022/02/09 15:20:50;;;;;;;6.95;1.58;;;20.50;48.90;;;;;;6170999;28;20044;-68
2022/02/09 15:23:52;;;;;;;5.43;1.60;;;20.40;48.60;;;;;;6170717;28;20037;-68
2022/02/09 15:26:54;;;;;;;5.07;1.33;;;20.40;47.90;;;;;;6169677;28;20047;-68
2022/02/09 15:29:55;;;;;;;7.10;1.77;;;20.30;47.30;;;;;;6169645;28;20090;-68
2022/02/09 15:32:57;;;;;;;6.68;1.80;;;20.30;47.60;;;;;;6170104;28;20030;-68
2022/02/09 15:35:59;;;;;;;3.72;1.63;;;20.30;47.70;;;;;;6170825;28;20050;-68
2022/02/09 15:39:00;;;;;;;6.95;1.42;;;20.30;47.70;;;;;;6171106;28;20034;-68
2022/02/09 16:09:06;;;;;;;3.55;1.40;;;20.30;49.20;;;;;;6157229;28;20038;-67
2022/02/09 16:22:01;;;;;;;3.72;0.95;;;20.20;49.20;;;;;;6165217;28;20038;-66
2022/02/09 16:44:37;;;;;;;3.30;1.10;;;20.20;49.20;;;;;;6149056;29;20023;-68
2022/02/09 16:50:59;;;;;;;3.22;0.90;;;20.20;49.10;;;;;;6148227;29;20122;-68
2022/02/09 17:20:07;;;;;;;1.08;0.57;;;20.20;49.20;;;;;;6170116;28;20027;-68
2022/02/09 17:23:07;;;;;;;0.68;0.52;;;20.20;49.20;;;;;;6169513;28;20062;-67
2022/02/09 17:26:09;;;;;;;2.20;0.75;;;20.20;49.20;;;;;;6167712;28;20510;-67
2022/02/09 17:29:16;;;;;;;1.58;0.82;;;20.20;49.20;;;;;;6169895;28;20054;-68
2022/02/09 17:32:33;;;;;;;1.60;0.90;;;20.20;49.20;;;;;;6155954;28;20038;-67
2022/02/09 17:35:47;;;;;;;3.20;0.90;;;20.20;49.20;;;;;;6175906;28;20030;-67
2022/02/09 17:38:57;;;;;;;1.55;0.60;;;20.20;49.20;;;;;;6154674;28;20383;-67
2022/02/09 17:55:47;;;;;;;1.00;0.60;;;20.20;49.20;;;;;;6168505;28;20509;-67
2022/02/09 17:58:48;;;;;;;2.83;0.70;;;20.20;49.20;;;;;;6168960;28;20042;-67
2022/02/09 18:01:50;;;;;;;1.45;0.70;;;20.20;49.20;;;;;;6161709;28;20054;-67
2022/02/09 18:04:50;;;;;;;1.13;0.70;;;20.20;49.20;;;;;;6167077;28;20030;-68
2022/02/09 18:07:57;;;;;;;1.55;0.60;;;20.20;49.20;;;;;;6167733;28;20085;-67
2022/02/09 18:14:26;;;;;;;0.90;0.52;;;20.20;49.20;;;;;;6168520;28;20049;-68
2022/02/09 18:30:54;;;;;;;0.77;0.50;;;20.20;49.30;;;;;;6168439;28;20046;-67
2022/02/09 18:34:22;;;;;;;0.73;0.40;;;20.20;49.30;;;;;;6160136;28;20027;-67
2022/02/09 18:44:14;;;;;;;1.83;0.82;;;20.20;49.30;;;;;;6154510;28;20031;-67
2022/02/09 19:03:58;;;;;;;0.98;0.70;;;20.20;49.30;;;;;;6143613;28;20356;-66
2022/02/09 19:26:44;;;;;;;1.23;0.68;;;20.10;49.20;;;;;;6166514;28;20133;-67
2022/02/09 19:33:12;;;;;;;3.75;0.40;;;20.10;49.30;;;;;;6166762;28;20030;-66
2022/02/09 19:43:57;;;;;;;0.82;0.50;;;20.10;49.40;;;;;;6148707;28;20455;-67
2022/02/09 19:49:31;;;;;;;3.90;0.75;;;20.10;49.50;;;;;;6163321;28;20039;-66
2022/02/09 19:55:35;;;;;;;11.02;0.70;;;20.00;49.40;;;;;;6168529;28;20058;-66
2022/02/09 19:58:56;;;;;;;3.53;0.70;;;20.00;49.30;;;;;;6167987;28;20039;-66
2022/02/09 20:01:57;;;;;;;5.93;0.70;;;20.00;49.40;;;;;;6169194;28;20062;-67
2022/02/09 20:04:57;;;;;;;2.90;0.70;;;20.00;49.50;;;;;;6172635;28;20516;-66
2022/02/09 20:08:03;;;;;;;5.82;0.65;;;20.00;49.50;;;;;;6174025;28;20394;-67
2022/02/09 20:11:05;;;;;;;2.20;0.63;;;20.00;49.40;;;;;;6173797;28;20038;-67
2022/02/09 20:14:05;;;;;;;1.25;0.50;;;20.00;49.50;;;;;;6174169;28;20090;-66
2022/02/09 20:17:06;;;;;;;3.50;0.85;;;20.00;49.50;;;;;;6173606;28;20019;-67
2022/02/09 20:20:10;;;;;;;3.47;0.70;;;20.00;49.50;;;;;;6173949;28;20027;-65
2022/02/09 20:23:12;;;;;;;5.03;0.65;;;20.00;49.50;;;;;;6173577;28;20031;-66
2022/02/09 20:26:13;;;;;;;8.40;0.60;;;19.90;49.40;;;;;;6173544;28;20042;-66
2022/02/09 20:29:25;;;;;;;3.58;1.00;;;19.90;49.30;;;;;;6173417;28;20515;-66
2022/02/09 20:32:30;;;;;;;3.22;0.60;;;19.90;49.20;;;;;;6169021;28;20031;-67
2022/02/09 20:35:31;;;;;;;1.48;0.70;;;19.90;49.40;;;;;;6149371;29;20387;-66
2022/02/09 20:38:33;;;;;;;2.53;0.60;;;19.90;49.40;;;;;;6149616;28;20280;-66
2022/02/09 20:41:35;;;;;;;1.45;0.55;;;19.90;49.40;;;;;;6149104;28;20031;-66
2022/02/09 20:44:42;;;;;;;0.47;0.38;;;19.90;49.30;;;;;;6149376;29;20367;-66
2022/02/09 20:47:45;;;;;;;4.35;0.52;;;19.90;49.30;;;;;;6149386;29;20090;-67
2022/02/09 20:50:46;;;;;;;2.67;0.60;;;19.90;49.30;;;;;;6149090;29;20030;-66
2022/02/09 20:53:47;;;;;;;1.60;0.50;;;19.90;49.40;;;;;;6149319;29;20499;-65
2022/02/09 20:56:47;;;;;;;1.20;0.70;;;19.90;49.40;;;;;;6148867;29;20039;-66
2022/02/09 20:59:52;;;;;;;2.85;0.60;;;19.90;49.30;;;;;;6149576;29;20030;-66
2022/02/09 21:03:05;;;;;;;2.03;0.57;;;19.90;49.40;;;;;;6148841;29;20042;-66
2022/02/09 21:09:22;;;;;;;3.10;0.47;;;19.90;49.50;;;;;;6172920;28;20034;-66
2022/02/09 21:15:45;;;;;;;1.73;0.52;;;19.90;49.50;;;;;;6171558;28;20065;-66
2022/02/09 21:22:35;;;;;;;1.23;0.52;;;19.90;49.50;;;;;;6172504;28;20030;-66
2022/02/09 21:58:34;;;;;;;1.48;0.50;;;19.80;49.40;;;;;;6148002;29;20065;-66
2022/02/09 22:01:31;;;;;;;0.65;0.30;;;19.80;49.40;;;;;;6143806;29;20086;-66
2022/02/09 22:21:53;;;;;;;0.30;0.30;;;19.70;49.40;;;;;;6171308;28;20030;-66
2022/02/09 22:47:34;;;;;;;0.70;0.57;;;19.70;49.50;;;;;;6170421;28;20122;-66
2022/02/09 22:56:41;;;;;;;0.47;0.35;;;19.70;49.60;;;;;;6170282;28;20047;-66
2022/02/09 23:02:49;;;;;;;1.05;0.40;;;19.70;49.60;;;;;;6170808;28;20050;-66
2022/02/09 23:15:36;;;;;;;0.50;0.43;;;19.70;49.60;;;;;;6170100;28;20031;-66
2022/02/09 23:22:40;;;;;;;1.08;0.50;;;19.70;49.60;;;;;;6169977;28;20041;-66
